Time;durP1;ratioP1;P1;durP2;ratioP2;P2;SDS_P1;SDS_P2;PMS_P1;PMS_P2;Temp;Humidity;BMP_temperature;BMP_pressure;BME280_temperature;BME280_humidity;BME280_pressure;Samples;Min_cycle;Max_cycle;Signal;HPM_P1;HPM_P2
2024/03/06 00:02:01;;;;;;;2.78;2.08;;;;;;;;;;5033415;28;20068;-61
2024/03/06 00:04:26;;;;;;;3.72;2.42;;;;;;;;;;5034553;28;20038;-60
2024/03/06 00:06:53;;;;;;;4.97;2.65;;;;;;;;;;5033380;28;20053;-60
2024/03/06 00:09:19;;;;;;;4.85;2.40;;;;;;;;;;5034497;28;20068;-60
2024/03/06 00:11:45;;;;;;;3.67;2.65;;;;;;;;;;5033271;28;20065;-60
2024/03/06 00:14:12;;;;;;;6.70;2.92;;;;;;;;;;5034010;28;20053;-60
2024/03/06 00:16:38;;;;;;;3.28;2.35;;;;;;;;;;5034665;28;20048;-60
2024/03/06 00:19:04;;;;;;;4.70;2.65;;;;;;;;;;5034503;28;20041;-59
2024/03/06 00:21:29;;;;;;;7.95;2.83;;;;;;;;;;5034442;28;20041;-60
2024/03/06 00:23:55;;;;;;;5.22;2.80;;;;;;;;;;5016530;28;20035;-60
2024/03/06 00:26:21;;;;;;;3.30;2.17;;;;;;;;;;5034280;28;20403;-61
2024/03/06 00:28:47;;;;;;;3.53;2.20;;;;;;;;;;5034145;28;20100;-61
2024/03/06 00:31:12;;;;;;;4.47;2.80;;;;;;;;;;5034262;28;20452;-61
2024/03/06 00:33:38;;;;;;;5.53;2.70;;;;;;;;;;5032557;28;20140;-61
2024/03/06 00:36:04;;;;;;;6.15;2.72;;;;;;;;;;5034213;28;20553;-61
2024/03/06 00:38:29;;;;;;;2.60;2.40;;;;;;;;;;5016203;28;20033;-60
2024/03/06 00:40:57;;;;;;;5.43;2.28;;;;;;;;;;5033912;28;20100;-61
2024/03/06 00:43:22;;;;;;;5.65;2.80;;;;;;;;;;5033952;28;20067;-59
2024/03/06 00:45:48;;;;;;;3.72;2.72;;;;;;;;;;5034024;28;20069;-60
2024/03/06 00:48:14;;;;;;;9.13;3.33;;;;;;;;;;5033750;28;20115;-61
2024/03/06 00:50:39;;;;;;;3.80;2.33;;;;;;;;;;5033932;28;20117;-60
2024/03/06 00:53:06;;;;;;;4.95;2.63;;;;;;;;;;5033748;28;20051;-58
2024/03/06 00:55:31;;;;;;;5.55;2.80;;;;;;;;;;5033780;28;20080;-59
2024/03/06 00:57:57;;;;;;;4.95;2.70;;;;;;;;;;5033857;28;20037;-60
2024/03/06 01:00:23;;;;;;;6.60;2.88;;;;;;;;;;5034057;28;20112;-60
2024/03/06 01:02:48;;;;;;;5.97;3.17;;;;;;;;;;5033323;28;20064;-59
2024/03/06 01:05:14;;;;;;;6.00;2.83;;;;;;;;;;5033999;28;20069;-59
2024/03/06 01:07:40;;;;;;;3.95;2.63;;;;;;;;;;5033228;28;20049;-60
2024/03/06 01:10:08;;;;;;;4.75;2.50;;;;;;;;;;5033876;28;20083;-60
2024/03/06 01:12:34;;;;;;;4.88;2.97;;;;;;;;;;5032988;28;20046;-60
2024/03/06 01:15:00;;;;;;;6.22;2.58;;;;;;;;;;5032540;28;20032;-60
2024/03/06 01:17:26;;;;;;;5.28;2.80;;;;;;;;;;5033161;28;20048;-61
2024/03/06 01:19:51;;;;;;;6.15;2.70;;;;;;;;;;5033704;28;20037;-60
2024/03/06 01:22:17;;;;;;;3.50;2.67;;;;;;;;;;5033162;28;20465;-60
2024/03/06 01:24:43;;;;;;;6.45;3.28;;;;;;;;;;5033614;28;20075;-60
2024/03/06 01:27:09;;;;;;;6.28;3.20;;;;;;;;;;5031664;28;20087;-62
2024/03/06 01:29:34;;;;;;;7.13;3.10;;;;;;;;;;5033403;28;20124;-60
2024/03/06 01:32:00;;;;;;;6.07;2.40;;;;;;;;;;5032783;28;20506;-59
2024/03/06 01:34:26;;;;;;;7.47;3.13;;;;;;;;;;5033083;28;20081;-59
2024/03/06 01:36:52;;;;;;;5.95;3.38;;;;;;;;;;5032959;28;20119;-60
2024/03/06 01:39:18;;;;;;;6.25;3.10;;;;;;;;;;5033061;28;20041;-60
2024/03/06 01:41:47;;;;;;;5.20;3.05;;;;;;;;;;5031756;28;20100;-60
2024/03/06 01:44:16;;;;;;;7.90;3.13;;;;;;;;;;5031556;28;20038;-59
2024/03/06 01:46:46;;;;;;;6.60;3.22;;;;;;;;;;5031743;28;20418;-60
2024/03/06 01:49:13;;;;;;;3.92;2.97;;;;;;;;;;5031144;28;20030;-61
2024/03/06 01:51:40;;;;;;;4.68;2.80;;;;;;;;;;5032377;28;20132;-60
2024/03/06 01:54:06;;;;;;;5.82;3.30;;;;;;;;;;5032439;28;20045;-60
2024/03/06 01:56:33;;;;;;;7.10;3.60;;;;;;;;;;5031352;28;20044;-60
2024/03/06 01:58:59;;;;;;;8.07;3.63;;;;;;;;;;5032405;28;20049;-58
2024/03/06 02:01:25;;;;;;;8.43;3.45;;;;;;;;;;5031504;28;20048;-61
2024/03/06 02:03:51;;;;;;;6.68;3.13;;;;;;;;;;5031057;28;20029;-60
2024/03/06 02:06:19;;;;;;;6.93;3.08;;;;;;;;;;5032196;28;20449;-60
2024/03/06 02:08:45;;;;;;;6.03;3.28;;;;;;;;;;5014297;28;20033;-59
2024/03/06 02:11:11;;;;;;;8.02;3.88;;;;;;;;;;5032544;28;20037;-61
2024/03/06 02:13:38;;;;;;;6.55;3.47;;;;;;;;;;5030498;28;20045;-60
2024/03/06 02:16:04;;;;;;;5.10;2.83;;;;;;;;;;5032383;28;20033;-59
2024/03/06 02:18:30;;;;;;;4.65;2.60;;;;;;;;;;5030478;28;20048;-59
2024/03/06 02:20:55;;;;;;;5.85;2.63;;;;;;;;;;5031282;28;20594;-62
2024/03/06 02:23:22;;;;;;;5.32;2.80;;;;;;;;;;5030512;28;20098;-60
2024/03/06 02:25:48;;;;;;;6.72;3.30;;;;;;;;;;5032395;28;20078;-60
2024/03/06 02:28:13;;;;;;;4.97;3.00;;;;;;;;;;5032065;28;20406;-59
2024/03/06 02:30:39;;;;;;;5.30;2.83;;;;;;;;;;5014185;28;20041;-60
2024/03/06 02:33:09;;;;;;;6.82;3.30;;;;;;;;;;5031611;28;20057;-59
2024/03/06 02:35:35;;;;;;;7.93;2.88;;;;;;;;;;5030567;28;20446;-60
2024/03/06 02:38:02;;;;;;;7.00;3.38;;;;;;;;;;5031609;28;20513;-60
2024/03/06 02:40:28;;;;;;;4.40;2.60;;;;;;;;;;5029830;28;20047;-60
2024/03/06 02:42:56;;;;;;;5.85;2.60;;;;;;;;;;5031839;28;20037;-59
2024/03/06 02:45:22;;;;;;;6.72;3.00;;;;;;;;;;5030435;28;20033;-60
2024/03/06 02:47:47;;;;;;;4.55;2.78;;;;;;;;;;5030377;28;20048;-60
2024/03/06 02:50:13;;;;;;;5.43;2.95;;;;;;;;;;5031821;28;20029;-60
2024/03/06 02:52:39;;;;;;;4.75;2.80;;;;;;;;;;5031699;28;20036;-61
2024/03/06 02:55:05;;;;;;;3.65;2.72;;;;;;;;;;5030137;28;20439;-61
2024/03/06 02:57:30;;;;;;;6.65;2.92;;;;;;;;;;5030597;28;20048;-60
2024/03/06 02:59:56;;;;;;;4.93;2.92;;;;;;;;;;5031467;28;20033;-59
2024/03/06 03:02:23;;;;;;;5.03;2.92;;;;;;;;;;5030115;28;20038;-60
2024/03/06 03:04:49;;;;;;;5.50;3.00;;;;;;;;;;5029662;28;20411;-60
2024/03/06 03:07:15;;;;;;;4.22;2.45;;;;;;;;;;5029599;28;20034;-59
2024/03/06 03:09:40;;;;;;;9.77;3.03;;;;;;;;;;5031426;28;20399;-59
2024/03/06 03:12:06;;;;;;;8.02;2.90;;;;;;;;;;5030117;28;20107;-63
2024/03/06 03:14:32;;;;;;;5.65;2.97;;;;;;;;;;5031139;28;20045;-61
2024/03/06 03:16:59;;;;;;;6.85;2.95;;;;;;;;;;5031395;28;20034;-60
2024/03/06 03:19:24;;;;;;;8.38;2.80;;;;;;;;;;5031066;28;20033;-61
2024/03/06 03:21:50;;;;;;;4.82;2.40;;;;;;;;;;5030975;28;20046;-61
2024/03/06 03:24:16;;;;;;;6.43;3.35;;;;;;;;;;5029430;28;20033;-61
2024/03/06 03:26:42;;;;;;;7.88;3.10;;;;;;;;;;5031451;28;20041;-58
2024/03/06 03:29:07;;;;;;;4.53;3.05;;;;;;;;;;5031292;28;20071;-59
2024/03/06 03:31:33;;;;;;;8.52;3.28;;;;;;;;;;5030088;28;20479;-62
2024/03/06 03:33:58;;;;;;;5.00;2.70;;;;;;;;;;5029493;28;20057;-61
2024/03/06 03:36:24;;;;;;;4.45;2.90;;;;;;;;;;5030029;28;20049;-62
2024/03/06 03:38:50;;;;;;;4.43;2.85;;;;;;;;;;5031266;28;20037;-58
2024/03/06 03:41:18;;;;;;;4.93;2.97;;;;;;;;;;5029960;28;20052;-59
2024/03/06 03:43:45;;;;;;;7.90;3.13;;;;;;;;;;5029350;28;20446;-60
2024/03/06 03:46:10;;;;;;;4.72;3.10;;;;;;;;;;5029345;28;20491;-60
2024/03/06 03:48:39;;;;;;;4.63;2.75;;;;;;;;;;5030877;28;20041;-59
2024/03/06 03:51:05;;;;;;;4.55;2.45;;;;;;;;;;5012775;28;20041;-60
2024/03/06 03:53:31;;;;;;;9.13;3.40;;;;;;;;;;5030660;28;20041;-61
2024/03/06 03:55:56;;;;;;;7.22;3.40;;;;;;;;;;5029756;28;20399;-60
2024/03/06 03:58:22;;;;;;;5.10;2.88;;;;;;;;;;5030357;28;20037;-61
2024/03/06 04:00:48;;;;;;;7.88;3.47;;;;;;;;;;5012690;28;20068;-61
2024/03/06 04:03:13;;;;;;;5.88;2.92;;;;;;;;;;5028830;28;20184;-61
2024/03/06 04:05:39;;;;;;;5.32;2.60;;;;;;;;;;5029031;28;20034;-61
2024/03/06 04:08:06;;;;;;;4.22;2.50;;;;;;;;;;4995900;28;20042;-61
2024/03/06 04:10:32;;;;;;;7.45;2.55;;;;;;;;;;5030830;28;20115;-61
2024/03/06 04:12:59;;;;;;;8.10;2.55;;;;;;;;;;5030471;28;20042;-59
2024/03/06 04:15:25;;;;;;;6.63;3.17;;;;;;;;;;5031610;28;20083;-60
2024/03/06 04:17:52;;;;;;;6.03;2.70;;;;;;;;;;5033922;28;20112;-61
2024/03/06 04:20:17;;;;;;;4.07;2.60;;;;;;;;;;5034008;28;20059;-60
2024/03/06 04:22:43;;;;;;;5.60;2.60;;;;;;;;;;5033947;28;20039;-60
2024/03/06 04:25:09;;;;;;;9.02;3.25;;;;;;;;;;5034290;28;20128;-59
2024/03/06 04:27:35;;;;;;;6.97;3.63;;;;;;;;;;5033918;28;20495;-60
2024/03/06 04:30:00;;;;;;;7.50;2.90;;;;;;;;;;5034238;28;20049;-62
2024/03/06 04:32:27;;;;;;;5.63;2.90;;;;;;;;;;5033286;28;20060;-61
2024/03/06 04:34:53;;;;;;;3.67;2.40;;;;;;;;;;5034334;28;20045;-60
2024/03/06 04:37:19;;;;;;;3.83;2.80;;;;;;;;;;5032811;28;20091;-59
2024/03/06 04:39:44;;;;;;;6.75;2.70;;;;;;;;;;5034089;28;20483;-61
2024/03/06 04:42:10;;;;;;;5.50;3.00;;;;;;;;;;5016406;28;20049;-62
2024/03/06 04:44:36;;;;;;;4.47;2.80;;;;;;;;;;5033176;28;20036;-60
2024/03/06 04:47:01;;;;;;;7.97;3.22;;;;;;;;;;5033321;28;20207;-61
2024/03/06 04:49:27;;;;;;;6.40;2.85;;;;;;;;;;5032951;28;20503;-61
2024/03/06 04:51:52;;;;;;;12.27;3.42;;;;;;;;;;5034063;28;20121;-60
2024/03/06 04:54:18;;;;;;;4.85;2.67;;;;;;;;;;5033086;28;20053;-60
2024/03/06 04:56:43;;;;;;;4.63;2.78;;;;;;;;;;5032025;28;20116;-61
2024/03/06 04:59:09;;;;;;;7.78;3.38;;;;;;;;;;5032284;28;20029;-59
2024/03/06 05:01:35;;;;;;;4.60;2.92;;;;;;;;;;5032162;28;20034;-58
2024/03/06 05:04:00;;;;;;;4.50;3.25;;;;;;;;;;5020970;28;20088;-59
2024/03/06 05:06:26;;;;;;;18.58;3.80;;;;;;;;;;5032612;28;20151;-61
2024/03/06 05:08:52;;;;;;;9.70;2.95;;;;;;;;;;5032974;28;20494;-59
2024/03/06 05:11:17;;;;;;;7.82;3.35;;;;;;;;;;5033556;28;20038;-59
2024/03/06 05:13:43;;;;;;;3.97;2.75;;;;;;;;;;5031587;28;20037;-58
2024/03/06 05:16:09;;;;;;;6.65;3.00;;;;;;;;;;5033215;28;20099;-59
2024/03/06 05:18:34;;;;;;;4.20;2.67;;;;;;;;;;5030833;28;20414;-58
2024/03/06 05:21:00;;;;;;;5.88;3.10;;;;;;;;;;5031435;28;20495;-58
2024/03/06 05:23:27;;;;;;;3.45;2.53;;;;;;;;;;5033280;28;20048;-58
2024/03/06 05:25:55;;;;;;;5.03;3.20;;;;;;;;;;5014701;28;20132;-58
2024/03/06 05:28:20;;;;;;;5.13;3.25;;;;;;;;;;5032765;28;20116;-57
2024/03/06 05:30:46;;;;;;;11.68;3.58;;;;;;;;;;5031397;28;20041;-59
2024/03/06 05:33:12;;;;;;;4.93;2.85;;;;;;;;;;5031032;28;20060;-58
2024/03/06 05:35:37;;;;;;;5.68;3.00;;;;;;;;;;5029704;28;20041;-61
2024/03/06 05:38:03;;;;;;;7.78;3.25;;;;;;;;;;5014140;28;20535;-58
2024/03/06 05:40:30;;;;;;;3.80;2.60;;;;;;;;;;5020341;28;20049;-59
2024/03/06 05:42:56;;;;;;;8.07;3.40;;;;;;;;;;5032991;28;20057;-59
2024/03/06 05:45:21;;;;;;;9.38;3.28;;;;;;;;;;5031387;28;20033;-60
2024/03/06 05:47:48;;;;;;;12.38;3.58;;;;;;;;;;5032843;28;20179;-60
2024/03/06 05:50:13;;;;;;;7.30;3.70;;;;;;;;;;5032886;28;20116;-59
2024/03/06 05:52:39;;;;;;;6.13;3.30;;;;;;;;;;5029908;28;20120;-58
2024/03/06 05:55:06;;;;;;;10.23;4.10;;;;;;;;;;5032347;28;20072;-57
2024/03/06 05:57:32;;;;;;;7.28;3.75;;;;;;;;;;5032145;28;20060;-60
2024/03/06 05:59:58;;;;;;;7.68;4.55;;;;;;;;;;5032614;28;20042;-59
2024/03/06 06:02:23;;;;;;;7.60;4.07;;;;;;;;;;5031608;28;20059;-60
2024/03/06 06:04:49;;;;;;;6.57;3.90;;;;;;;;;;5014725;28;20068;-60
2024/03/06 06:07:15;;;;;;;8.15;4.15;;;;;;;;;;5031975;28;20041;-60
2024/03/06 06:09:43;;;;;;;5.43;3.00;;;;;;;;;;5030950;28;20057;-60
2024/03/06 06:12:09;;;;;;;4.03;3.00;;;;;;;;;;5030335;28;20396;-59
2024/03/06 06:14:35;;;;;;;5.70;2.97;;;;;;;;;;5030698;28;20045;-61
2024/03/06 06:17:01;;;;;;;7.13;3.33;;;;;;;;;;5031868;28;20458;-60
2024/03/06 06:19:27;;;;;;;8.43;3.22;;;;;;;;;;5014177;28;20411;-60
2024/03/06 06:21:59;;;;;;;6.43;3.67;;;;;;;;;;5014910;28;20115;-61
2024/03/06 06:24:25;;;;;;;5.18;3.13;;;;;;;;;;5030014;28;20037;-60
2024/03/06 06:26:52;;;;;;;5.85;2.92;;;;;;;;;;5028946;28;20307;-60
2024/03/06 06:29:19;;;;;;;8.27;3.03;;;;;;;;;;5030876;28;20176;-60
2024/03/06 06:31:44;;;;;;;6.47;2.90;;;;;;;;;;5030231;28;20037;-60
2024/03/06 06:34:11;;;;;;;5.72;3.13;;;;;;;;;;5029569;28;20454;-60
2024/03/06 06:36:37;;;;;;;12.07;3.30;;;;;;;;;;5030240;28;20069;-61
2024/03/06 06:39:05;;;;;;;10.13;3.95;;;;;;;;;;5029954;28;20033;-60
2024/03/06 06:41:32;;;;;;;5.57;3.33;;;;;;;;;;5030956;28;20034;-59
2024/03/06 06:43:57;;;;;;;7.68;3.67;;;;;;;;;;5032149;28;20037;-59
2024/03/06 06:46:23;;;;;;;7.15;3.50;;;;;;;;;;5032059;28;20396;-60
2024/03/06 06:48:49;;;;;;;7.50;4.03;;;;;;;;;;5031226;28;20049;-58
2024/03/06 06:51:14;;;;;;;7.55;3.47;;;;;;;;;;5031321;28;20037;-60
2024/03/06 06:53:43;;;;;;;8.93;4.25;;;;;;;;;;5029774;28;20422;-61
2024/03/06 06:56:09;;;;;;;10.82;3.63;;;;;;;;;;5031328;28;20033;-59
2024/03/06 06:58:34;;;;;;;9.35;4.03;;;;;;;;;;5029779;28;20045;-62
2024/03/06 07:01:00;;;;;;;16.33;4.40;;;;;;;;;;5031320;28;20033;-61
2024/03/06 07:03:29;;;;;;;14.93;5.20;;;;;;;;;;5029702;28;20044;-59
2024/03/06 07:05:58;;;;;;;18.42;5.82;;;;;;;;;;5031417;28;20106;-59
2024/03/06 07:08:23;;;;;;;17.35;4.53;;;;;;;;;;5030968;28;20394;-55
2024/03/06 07:10:49;;;;;;;9.80;4.50;;;;;;;;;;5030670;28;20029;-61
2024/03/06 07:13:15;;;;;;;11.65;6.10;;;;;;;;;;5012790;28;20458;-60
2024/03/06 07:15:41;;;;;;;18.80;8.23;;;;;;;;;;5029501;28;20033;-60
2024/03/06 07:18:07;;;;;;;15.63;5.55;;;;;;;;;;5062726;28;20543;-61
2024/03/06 07:20:32;;;;;;;14.80;6.68;;;;;;;;;;5029590;28;20037;-60
2024/03/06 07:22:58;;;;;;;10.02;4.95;;;;;;;;;;5030994;28;20376;-57
2024/03/06 07:25:24;;;;;;;8.50;4.28;;;;;;;;;;5031194;28;20037;-61
2024/03/06 07:27:49;;;;;;;9.02;3.83;;;;;;;;;;5031384;28;20037;-60
2024/03/06 07:30:16;;;;;;;10.07;5.00;;;;;;;;;;5031276;28;20040;-58
2024/03/06 07:32:41;;;;;;;14.57;4.80;;;;;;;;;;5030726;28;20061;-60
2024/03/06 07:35:07;;;;;;;10.35;4.60;;;;;;;;;;5013213;28;20041;-59
2024/03/06 07:37:33;;;;;;;14.63;4.57;;;;;;;;;;5029406;28;20040;-60
2024/03/06 07:39:59;;;;;;;14.05;5.00;;;;;;;;;;5031240;28;20045;-60
2024/03/06 07:42:25;;;;;;;11.63;4.45;;;;;;;;;;5029134;28;20038;-60
2024/03/06 07:44:51;;;;;;;12.35;5.38;;;;;;;;;;5031167;28;20030;-59
2024/03/06 07:47:17;;;;;;;9.48;4.05;;;;;;;;;;5030481;28;20088;-60
2024/03/06 07:49:44;;;;;;;7.68;4.22;;;;;;;;;;5032118;28;20037;-60
2024/03/06 07:52:10;;;;;;;13.55;4.80;;;;;;;;;;5034447;28;20561;-60
2024/03/06 07:54:36;;;;;;;6.97;3.90;;;;;;;;;;5034282;28;20045;-60
2024/03/06 07:57:01;;;;;;;8.18;4.00;;;;;;;;;;5033371;28;20042;-61
2024/03/06 07:59:27;;;;;;;12.75;4.90;;;;;;;;;;5034567;28;20525;-60
2024/03/06 08:01:53;;;;;;;12.05;5.32;;;;;;;;;;5034648;28;20116;-63
2024/03/06 08:04:18;;;;;;;8.35;4.57;;;;;;;;;;5032931;28;20120;-63
2024/03/06 08:06:44;;;;;;;10.02;4.95;;;;;;;;;;5034169;28;20076;-62
2024/03/06 08:09:09;;;;;;;6.97;3.80;;;;;;;;;;5034574;28;20041;-60
2024/03/06 08:11:35;;;;;;;11.35;4.63;;;;;;;;;;5034350;28;20030;-61
2024/03/06 08:14:04;;;;;;;13.75;4.47;;;;;;;;;;5034320;28;20041;-59
2024/03/06 08:16:30;;;;;;;9.38;4.57;;;;;;;;;;5032459;28;20037;-59
2024/03/06 08:18:56;;;;;;;6.90;3.63;;;;;;;;;;5034520;28;20048;-60
2024/03/06 08:21:22;;;;;;;9.45;3.97;;;;;;;;;;5033781;28;20034;-60
2024/03/06 08:23:49;;;;;;;4.78;3.30;;;;;;;;;;5034212;28;20057;-60
2024/03/06 08:26:14;;;;;;;5.30;3.10;;;;;;;;;;5033905;28;20048;-60
2024/03/06 08:28:40;;;;;;;4.97;3.40;;;;;;;;;;5032705;28;20434;-61
2024/03/06 08:31:08;;;;;;;7.43;3.78;;;;;;;;;;5033340;28;20105;-57
2024/03/06 08:33:34;;;;;;;5.03;3.55;;;;;;;;;;5032323;28;20061;-60
2024/03/06 08:35:59;;;;;;;5.85;2.90;;;;;;;;;;5033846;28;20160;-63
2024/03/06 08:38:25;;;;;;;8.60;3.78;;;;;;;;;;5033625;28;20419;-60
2024/03/06 08:40:51;;;;;;;8.27;3.08;;;;;;;;;;5033692;28;20033;-59
2024/03/06 08:43:17;;;;;;;8.95;3.60;;;;;;;;;;5033909;28;20033;-60
2024/03/06 08:45:43;;;;;;;10.13;3.45;;;;;;;;;;5033549;28;20036;-61
2024/03/06 08:48:10;;;;;;;19.13;3.97;;;;;;;;;;5032273;28;20392;-56
2024/03/06 08:50:35;;;;;;;8.23;3.70;;;;;;;;;;5032280;28;20080;-59
2024/03/06 08:53:04;;;;;;;5.68;3.63;;;;;;;;;;5031872;28;20434;-59
2024/03/06 08:55:30;;;;;;;9.52;5.43;;;;;;;;;;5033699;28;20454;-60
2024/03/06 08:57:55;;;;;;;7.93;3.80;;;;;;;;;;5033618;28;20038;-58
2024/03/06 09:00:21;;;;;;;4.30;2.67;;;;;;;;;;5032205;28;20037;-63
2024/03/06 09:02:47;;;;;;;4.07;2.40;;;;;;;;;;5032013;28;20064;-59
2024/03/06 09:05:12;;;;;;;3.55;2.05;;;;;;;;;;5032280;28;20034;-60
2024/03/06 09:07:40;;;;;;;6.18;2.58;;;;;;;;;;5031720;28;20041;-60
2024/03/06 09:10:07;;;;;;;4.00;2.10;;;;;;;;;;5033645;28;20037;-59
2024/03/06 09:12:36;;;;;;;8.18;2.35;;;;;;;;;;5033319;28;20165;-56
2024/03/06 09:15:03;;;;;;;2.35;2.15;;;;;;;;;;5032290;28;20423;-59
2024/03/06 09:17:31;;;;;;;5.35;2.08;;;;;;;;;;5032937;28;20042;-61
2024/03/06 09:19:57;;;;;;;4.60;2.03;;;;;;;;;;5033365;28;20052;-59
2024/03/06 09:22:22;;;;;;;5.57;2.75;;;;;;;;;;5030883;28;20050;-58
2024/03/06 09:24:48;;;;;;;5.72;2.40;;;;;;;;;;5033448;28;20033;-59
2024/03/06 09:27:14;;;;;;;3.88;2.47;;;;;;;;;;5032992;28;20056;-59
2024/03/06 09:29:40;;;;;;;2.85;2.35;;;;;;;;;;5033086;28;20522;-58
2024/03/06 09:32:06;;;;;;;4.20;2.30;;;;;;;;;;5032481;28;20041;-60
2024/03/06 09:34:31;;;;;;;5.13;2.22;;;;;;;;;;5032944;28;20493;-57
2024/03/06 09:36:57;;;;;;;2.83;2.20;;;;;;;;;;5031487;28;20128;-58
2024/03/06 09:39:23;;;;;;;5.05;2.50;;;;;;;;;;5029727;28;20474;-67
2024/03/06 09:41:52;;;;;;;5.93;2.55;;;;;;;;;;5012754;28;20494;-59
2024/03/06 09:44:18;;;;;;;5.43;2.25;;;;;;;;;;5031374;28;20048;-59
2024/03/06 09:46:44;;;;;;;3.10;1.80;;;;;;;;;;5031140;28;20034;-60
2024/03/06 09:49:14;;;;;;;4.57;2.08;;;;;;;;;;5032834;28;20242;-58
2024/03/06 09:51:41;;;;;;;;;;;;;;;;;;5033100;28;20037;-57
2024/03/06 09:54:07;;;;;;;2.90;1.70;;;;;;;;;;5030762;28;19928;-58
2024/03/06 09:56:33;;;;;;;4.70;1.85;;;;;;;;;;5032116;28;20400;-59
2024/03/06 09:59:00;;;;;;;4.57;2.22;;;;;;;;;;5032145;28;20490;-59
2024/03/06 10:01:26;;;;;;;3.15;1.80;;;;;;;;;;5031935;28;20050;-59
2024/03/06 10:03:52;;;;;;;4.88;2.05;;;;;;;;;;5030980;28;20368;-59
2024/03/06 10:06:18;;;;;;;4.07;2.30;;;;;;;;;;5032271;28;20044;-56
2024/03/06 10:08:43;;;;;;;2.90;2.03;;;;;;;;;;5032294;28;20411;-60
2024/03/06 10:11:10;;;;;;;5.35;2.00;;;;;;;;;;5030462;28;20100;-61
2024/03/06 10:13:36;;;;;;;4.47;2.35;;;;;;;;;;5012082;28;20041;-60
2024/03/06 10:16:03;;;;;;;4.38;2.72;;;;;;;;;;5031288;28;20072;-60
2024/03/06 10:18:29;;;;;;;7.00;3.10;;;;;;;;;;5031416;28;20540;-59
2024/03/06 10:20:55;;;;;;;3.08;2.10;;;;;;;;;;5031086;28;20164;-58
2024/03/06 10:23:21;;;;;;;7.15;2.47;;;;;;;;;;5032128;28;20522;-59
2024/03/06 10:25:50;;;;;;;8.07;2.15;;;;;;;;;;5031995;28;20120;-59
2024/03/06 10:28:17;;;;;;;4.38;2.05;;;;;;;;;;5031739;28;20472;-58
2024/03/06 10:30:43;;;;;;;5.47;1.88;;;;;;;;;;5031532;28;20458;-59
2024/03/06 10:33:09;;;;;;;3.30;2.00;;;;;;;;;;5031412;28;20058;-58
2024/03/06 10:35:38;;;;;;;7.38;2.72;;;;;;;;;;5031827;28;20124;-62
2024/03/06 10:38:04;;;;;;;8.07;2.08;;;;;;;;;;5031557;28;20483;-60
2024/03/06 10:40:43;;;;;;;7.82;2.13;;;;;;;;;;5030065;28;20099;-60
2024/03/06 10:43:09;;;;;;;4.60;2.20;;;;;;;;;;5031485;28;20121;-59
2024/03/06 10:45:50;;;;;;;4.50;2.03;;;;;;;;;;5030467;28;20112;-61
2024/03/06 10:48:17;;;;;;;4.60;1.85;;;;;;;;;;5031721;28;20060;-60
2024/03/06 10:50:44;;;;;;;3.45;2.05;;;;;;;;;;5031257;28;20084;-55
2024/03/06 10:53:11;;;;;;;2.80;1.95;;;;;;;;;;5031164;28;20037;-59
2024/03/06 10:55:37;;;;;;;4.45;2.17;;;;;;;;;;5031266;28;20041;-57
2024/03/06 10:58:08;;;;;;;7.30;2.70;;;;;;;;;;5030387;28;20025;-57
2024/03/06 11:00:41;;;;;;;3.40;1.85;;;;;;;;;;5031215;28;20033;-56
2024/03/06 11:03:12;;;;;;;3.17;1.92;;;;;;;;;;5031153;28;20034;-57
2024/03/06 11:05:41;;;;;;;7.07;1.98;;;;;;;;;;5030133;28;20073;-59
2024/03/06 11:08:10;;;;;;;3.33;2.03;;;;;;;;;;5031174;28;20033;-58
2024/03/06 11:10:39;;;;;;;2.85;2.05;;;;;;;;;;5031308;28;20099;-59
2024/03/06 11:13:20;;;;;;;2.03;1.70;;;;;;;;;;5030091;28;20037;-59
2024/03/06 11:15:47;;;;;;;4.57;1.80;;;;;;;;;;5031256;28;20403;-59
2024/03/06 11:18:32;;;;;;;6.43;3.17;;;;;;;;;;5031172;28;20034;-59
2024/03/06 11:20:59;;;;;;;3.67;2.00;;;;;;;;;;5010150;28;20056;-59
2024/03/06 11:23:25;;;;;;;2.20;1.70;;;;;;;;;;5031043;28;20499;-59
2024/03/06 11:25:50;;;;;;;3.53;1.73;;;;;;;;;;5034322;28;20034;-60
2024/03/06 11:28:18;;;;;;;4.70;2.60;;;;;;;;;;5035418;28;20086;-58
2024/03/06 11:30:47;;;;;;;5.05;2.83;;;;;;;;;;5035018;28;20037;-60
2024/03/06 11:33:16;;;;;;;6.32;2.97;;;;;;;;;;5034847;28;20057;-58
2024/03/06 11:35:44;;;;;;;2.70;1.95;;;;;;;;;;5034824;28;20041;-59
2024/03/06 11:38:10;;;;;;;5.97;3.65;;;;;;;;;;5035154;28;20044;-58
2024/03/06 11:40:43;;;;;;;1.63;1.50;;;;;;;;;;5035066;28;20029;-60
2024/03/06 11:43:27;;;;;;;4.05;2.08;;;;;;;;;;5033994;28;20083;-58
2024/03/06 11:45:53;;;;;;;5.47;2.90;;;;;;;;;;5034857;28;20042;-60
2024/03/06 11:48:21;;;;;;;3.63;1.90;;;;;;;;;;5034804;28;20546;-59
2024/03/06 11:50:47;;;;;;;4.07;2.55;;;;;;;;;;5034555;28;20090;-61
2024/03/06 11:53:14;;;;;;;3.28;2.45;;;;;;;;;;5033455;28;20049;-57
2024/03/06 11:55:39;;;;;;;4.38;2.97;;;;;;;;;;5034808;28;20045;-61
2024/03/06 11:58:07;;;;;;;2.80;2.28;;;;;;;;;;5033989;28;20025;-58
2024/03/06 12:00:33;;;;;;;2.90;1.48;;;;;;;;;;5033097;28;20040;-60
2024/03/06 12:02:58;;;;;;;4.07;2.95;;;;;;;;;;5033234;28;20041;-57
2024/03/06 12:05:25;;;;;;;3.70;2.90;;;;;;;;;;5033380;28;20033;-58
2024/03/06 12:07:51;;;;;;;3.65;2.08;;;;;;;;;;5034723;28;20052;-58
2024/03/06 12:10:17;;;;;;;4.45;2.60;;;;;;;;;;5034673;28;20029;-58
2024/03/06 12:12:47;;;;;;;1.98;1.40;;;;;;;;;;5034536;28;20045;-61
2024/03/06 12:15:14;;;;;;;1.30;1.10;;;;;;;;;;5033582;28;20125;-60
2024/03/06 12:17:58;;;;;;;4.50;1.58;;;;;;;;;;5034358;28;20069;-62
2024/03/06 12:20:25;;;;;;;1.35;1.23;;;;;;;;;;5016514;28;20037;-62
2024/03/06 12:22:51;;;;;;;1.50;1.40;;;;;;;;;;5033202;28;20037;-59
2024/03/06 12:25:19;;;;;;;2.95;1.75;;;;;;;;;;5034228;28;20037;-60
2024/03/06 12:27:45;;;;;;;1.75;1.10;;;;;;;;;;5034162;28;20061;-61
2024/03/06 12:30:13;;;;;;;1.60;1.17;;;;;;;;;;5032442;28;20076;-60
2024/03/06 12:32:39;;;;;;;3.67;1.50;;;;;;;;;;5032736;28;20551;-61
2024/03/06 12:35:05;;;;;;;3.22;1.30;;;;;;;;;;5033717;28;20128;-56
2024/03/06 12:37:35;;;;;;;1.90;1.27;;;;;;;;;;5032701;28;20038;-60
2024/03/06 12:40:01;;;;;;;2.88;1.60;;;;;;;;;;5033889;28;20037;-60
2024/03/06 12:42:28;;;;;;;1.88;1.40;;;;;;;;;;5033704;28;20507;-59
2024/03/06 12:44:54;;;;;;;1.95;1.10;;;;;;;;;;5032127;28;20064;-60
2024/03/06 12:47:20;;;;;;;1.73;1.23;;;;;;;;;;5032446;28;20049;-59
2024/03/06 12:49:45;;;;;;;2.95;1.30;;;;;;;;;;5034163;28;20514;-57
2024/03/06 12:52:11;;;;;;;3.13;1.38;;;;;;;;;;5032447;28;20033;-60
2024/03/06 12:54:36;;;;;;;2.88;1.52;;;;;;;;;;5033876;28;20128;-59
2024/03/06 12:57:02;;;;;;;2.13;1.50;;;;;;;;;;5033374;28;20080;-60
2024/03/06 12:59:28;;;;;;;2.55;1.38;;;;;;;;;;5031989;28;20033;-57
2024/03/06 13:01:54;;;;;;;4.65;1.67;;;;;;;;;;5033181;28;20522;-59
2024/03/06 13:04:20;;;;;;;7.43;1.33;;;;;;;;;;5033236;28;20087;-58
2024/03/06 13:06:45;;;;;;;1.88;1.35;;;;;;;;;;5033483;28;20499;-59
2024/03/06 13:09:11;;;;;;;2.50;1.73;;;;;;;;;;5033592;28;20041;-56
2024/03/06 13:11:37;;;;;;;3.45;1.52;;;;;;;;;;5033323;28;20042;-61
2024/03/06 13:14:02;;;;;;;2.65;1.60;;;;;;;;;;5032166;28;20396;-59
2024/03/06 13:16:28;;;;;;;3.00;1.98;;;;;;;;;;5032021;28;20538;-61
2024/03/06 13:18:56;;;;;;;7.40;2.78;;;;;;;;;;5015446;28;20041;-58
2024/03/06 13:21:23;;;;;;;4.80;2.28;;;;;;;;;;5033032;28;20048;-61
2024/03/06 13:23:49;;;;;;;7.55;2.33;;;;;;;;;;5032581;28;20513;-61
2024/03/06 13:26:15;;;;;;;5.20;2.30;;;;;;;;;;5032090;28;20038;-60
2024/03/06 13:28:40;;;;;;;5.95;2.50;;;;;;;;;;5031298;28;20403;-62
2024/03/06 13:31:07;;;;;;;5.35;3.00;;;;;;;;;;5031857;28;20307;-62
2024/03/06 13:33:34;;;;;;;5.60;3.05;;;;;;;;;;5014980;28;20148;-61
2024/03/06 13:36:00;;;;;;;6.30;3.20;;;;;;;;;;5032531;28;20116;-61
2024/03/06 13:38:26;;;;;;;3.38;2.10;;;;;;;;;;5032953;28;20095;-61
2024/03/06 13:40:51;;;;;;;1.95;1.58;;;;;;;;;;5032439;28;20038;-61
2024/03/06 13:43:17;;;;;;;2.78;1.30;;;;;;;;;;5032838;28;20037;-60
2024/03/06 13:45:50;;;;;;;3.38;1.17;;;;;;;;;;5032057;28;20053;-61
2024/03/06 13:48:16;;;;;;;1.27;1.10;;;;;;;;;;5031983;28;20045;-60
2024/03/06 13:50:45;;;;;;;1.77;1.35;;;;;;;;;;5031390;28;20034;-60
2024/03/06 13:53:11;;;;;;;2.35;1.50;;;;;;;;;;5032485;28;20129;-58
2024/03/06 13:55:37;;;;;;;1.60;1.20;;;;;;;;;;5032310;28;20064;-63
2024/03/06 13:58:04;;;;;;;3.92;1.60;;;;;;;;;;5030833;28;20092;-61
2024/03/06 14:00:29;;;;;;;3.05;1.33;;;;;;;;;;5032130;28;20045;-61
2024/03/06 14:02:55;;;;;;;1.52;1.20;;;;;;;;;;5014495;28;20033;-61
2024/03/06 14:05:24;;;;;;;1.80;1.20;;;;;;;;;;5032267;28;20128;-62
2024/03/06 14:07:51;;;;;;;3.90;1.52;;;;;;;;;;5032150;28;20458;-60
2024/03/06 14:10:19;;;;;;;3.40;1.40;;;;;;;;;;5030974;28;20609;-60
2024/03/06 14:12:44;;;;;;;1.52;1.40;;;;;;;;;;5032123;28;20057;-62
2024/03/06 14:15:15;;;;;;;1.30;1.20;;;;;;;;;;5032007;28;20557;-62
2024/03/06 14:17:41;;;;;;;3.70;1.30;;;;;;;;;;5031028;28;20038;-60
2024/03/06 14:20:07;;;;;;;2.40;1.40;;;;;;;;;;5030623;28;20111;-62
2024/03/06 14:22:33;;;;;;;1.40;1.23;;;;;;;;;;5030726;28;20091;-61
2024/03/06 14:24:58;;;;;;;1.42;1.33;;;;;;;;;;5032199;28;20033;-62
2024/03/06 14:27:24;;;;;;;1.70;1.30;;;;;;;;;;5031783;28;20079;-60
2024/03/06 14:29:50;;;;;;;1.63;1.33;;;;;;;;;;5030920;28;20218;-62
2024/03/06 14:32:18;;;;;;;2.58;1.50;;;;;;;;;;5031391;28;20069;-61
2024/03/06 14:34:43;;;;;;;1.27;1.17;;;;;;;;;;5012740;28;20071;-61
2024/03/06 14:37:09;;;;;;;2.05;1.10;;;;;;;;;;5031744;28;20049;-62
2024/03/06 14:39:36;;;;;;;5.03;1.50;;;;;;;;;;5027496;28;20053;-62